createdAt,value
2022-08-11T00:01:28.023Z,1.50
2022-08-11T00:04:02.737Z,1.60
2022-08-11T00:06:39.340Z,1.50
2022-08-11T00:09:21.543Z,1.40
2022-08-11T00:11:53.315Z,1.50
2022-08-11T00:14:36.889Z,1.20
2022-08-11T00:17:16.315Z,1.50
2022-08-11T00:20:12.477Z,1.30
2022-08-11T00:22:41.823Z,1.40
2022-08-11T00:25:12.491Z,1.50
2022-08-11T00:27:41.650Z,1.50
2022-08-11T00:30:11.754Z,1.30
2022-08-11T00:32:45.142Z,1.70
2022-08-11T00:35:51.790Z,1.40
2022-08-11T00:38:04.701Z,1.40
2022-08-11T00:40:44.446Z,1.30
2022-08-11T00:43:44.997Z,1.20
2022-08-11T00:46:32.644Z,1.60
2022-08-11T00:49:11.953Z,1.30
2022-08-11T00:52:04.979Z,1.20
2022-08-11T00:54:38.856Z,1.30
2022-08-11T00:57:38.557Z,1.50
2022-08-11T01:00:25.534Z,1.30
2022-08-11T01:03:13.103Z,1.40
2022-08-11T01:06:07.876Z,1.30
2022-08-11T01:09:17.872Z,1.20
2022-08-11T01:11:56.360Z,1.30
2022-08-11T01:15:06.446Z,1.50
2022-08-11T01:18:28.534Z,1.40
2022-08-11T01:21:23.718Z,1.30
2022-08-11T01:24:15.672Z,1.30
2022-08-11T01:27:40.077Z,1.40
2022-08-11T01:31:03.934Z,1.30
2022-08-11T01:34:07.682Z,1.40
2022-08-11T01:36:53.609Z,1.30
2022-08-11T01:39:42.351Z,1.30
2022-08-11T01:43:05.259Z,1.30
2022-08-11T01:45:48.715Z,1.40
2022-08-11T01:48:45.161Z,1.40
2022-08-11T01:51:46.072Z,1.40
2022-08-11T01:54:41.047Z,1.20
2022-08-11T01:57:42.589Z,1.30
2022-08-11T02:00:16.709Z,1.60
2022-08-11T02:03:04.611Z,1.20
2022-08-11T02:06:02.407Z,1.40
2022-08-11T02:08:52.096Z,1.40
2022-08-11T02:11:37.866Z,1.20
2022-08-11T02:14:39.640Z,1.40
2022-08-11T02:17:50.663Z,1.50
2022-08-11T02:21:25.656Z,1.20
2022-08-11T02:24:05.990Z,1.60
2022-08-11T02:26:47.419Z,1.30
2022-08-11T02:29:23.357Z,1.30
2022-08-11T02:32:43.419Z,1.60
2022-08-11T02:35:13.123Z,1.80
2022-08-11T02:37:50.484Z,1.30
2022-08-11T02:40:38.401Z,1.50
2022-08-11T02:43:36.229Z,1.80
2022-08-11T02:46:37.381Z,1.70
2022-08-11T02:49:22.471Z,1.80
2022-08-11T02:52:01.157Z,1.60
2022-08-11T02:54:44.620Z,1.40
2022-08-11T02:57:23.480Z,1.90
2022-08-11T02:59:57.735Z,1.70
2022-08-11T03:02:53.606Z,1.70
2022-08-11T03:05:49.931Z,1.70
2022-08-11T03:08:31.523Z,1.60
2022-08-11T03:11:46.113Z,1.50
2022-08-11T03:14:37.842Z,1.60
2022-08-11T03:17:34.198Z,1.60
2022-08-11T03:20:19.494Z,1.80
2022-08-11T03:23:39.651Z,1.70
2022-08-11T03:26:38.722Z,1.90
2022-08-11T03:29:18.318Z,2.00
2022-08-11T03:32:02.534Z,2.30
2022-08-11T03:34:38.190Z,2.20
2022-08-11T03:37:59.457Z,1.90
2022-08-11T03:42:01.665Z,2.00
2022-08-11T03:44:38.154Z,2.00
2022-08-11T03:47:34.186Z,1.90
2022-08-11T03:50:23.359Z,2.00
2022-08-11T03:53:08.940Z,1.80
2022-08-11T03:56:06.607Z,2.30
2022-08-11T03:58:58.456Z,1.90
2022-08-11T04:02:17.159Z,1.80
2022-08-11T04:05:18.345Z,1.90
2022-08-11T04:08:10.006Z,2.00
2022-08-11T04:11:22.509Z,2.30
2022-08-11T04:14:58.153Z,2.10
2022-08-11T04:17:50.461Z,2.30
2022-08-11T04:20:34.529Z,1.90
2022-08-11T04:24:36.213Z,2.30
2022-08-11T04:27:37.028Z,2.30
2022-08-11T04:30:14.871Z,2.30
2022-08-11T04:32:58.887Z,2.10
2022-08-11T04:35:54.368Z,2.30
2022-08-11T04:39:04.326Z,2.30
2022-08-11T04:42:29.602Z,2.30
2022-08-11T04:45:51.164Z,2.70
2022-08-11T04:49:07.489Z,2.50
2022-08-11T04:52:25.540Z,2.50
2022-08-11T04:56:16.873Z,2.20
2022-08-11T04:59:56.063Z,2.50
2022-08-11T05:02:47.619Z,2.50
2022-08-11T05:05:56.279Z,3.20
2022-08-11T05:09:15.028Z,3.00
2022-08-11T05:12:42.815Z,2.70
2022-08-11T05:15:42.549Z,2.70
2022-08-11T05:18:38.321Z,2.80
2022-08-11T05:21:29.770Z,2.60
2022-08-11T05:24:39.947Z,2.50
2022-08-11T05:27:29.871Z,2.70
2022-08-11T05:30:34.324Z,3.00
2022-08-11T05:33:44.511Z,2.60
2022-08-11T05:36:48.228Z,2.40
2022-08-11T05:40:14.214Z,2.30
2022-08-11T05:43:12.281Z,2.20
2022-08-11T05:46:04.638Z,2.40
2022-08-11T05:48:54.106Z,3.00
2022-08-11T05:51:54.957Z,2.60
2022-08-11T05:54:46.763Z,2.40
2022-08-11T05:57:38.597Z,2.40
2022-08-11T06:00:19.629Z,2.80
2022-08-11T06:02:55.448Z,3.00
2022-08-11T06:05:43.686Z,3.40
2022-08-11T06:08:13.813Z,3.50
2022-08-11T06:10:45.459Z,3.30
2022-08-11T06:13:17.859Z,3.00
2022-08-11T06:15:49.288Z,3.20
2022-08-11T06:18:18.005Z,3.10
2022-08-11T06:20:52.403Z,3.00
2022-08-11T06:23:23.686Z,3.00
2022-08-11T06:25:53.428Z,2.90
2022-08-11T06:28:33.893Z,2.90
2022-08-11T06:31:11.783Z,2.90
2022-08-11T06:33:51.025Z,2.50
2022-08-11T06:36:34.469Z,2.60
2022-08-11T06:39:27.934Z,2.50
2022-08-11T06:42:07.232Z,2.30
2022-08-11T06:44:51.517Z,2.60
2022-08-11T06:47:20.623Z,2.40
2022-08-11T06:50:08.194Z,2.00
2022-08-11T06:52:38.660Z,2.30
2022-08-11T06:55:15.938Z,2.20
2022-08-11T06:58:19.752Z,2.10
2022-08-11T07:00:54.641Z,2.40
2022-08-11T07:03:23.635Z,2.10
2022-08-11T07:06:05.507Z,2.20
2022-08-11T07:09:38.921Z,2.10
2022-08-11T07:12:57.929Z,2.20
2022-08-11T07:16:10.376Z,2.20
2022-08-11T07:18:54.075Z,2.30
2022-08-11T07:22:02.465Z,2.20
2022-08-11T07:25:34.151Z,2.30
2022-08-11T07:28:28.081Z,1.70
2022-08-11T07:31:07.344Z,2.50
2022-08-11T07:34:08.052Z,2.10
2022-08-11T07:36:51.550Z,2.40
2022-08-11T07:39:26.671Z,2.00
2022-08-11T07:41:57.497Z,2.10
2022-08-11T07:44:34.299Z,2.00
2022-08-11T07:47:22.459Z,2.40
2022-08-11T07:50:11.515Z,2.50
2022-08-11T07:52:40.739Z,2.20
2022-08-11T07:55:17.702Z,2.00
2022-08-11T07:58:15.784Z,2.40
2022-08-11T08:01:21.839Z,2.60
2022-08-11T08:04:09.544Z,2.40
2022-08-11T08:06:58.357Z,2.30
2022-08-11T08:09:45.561Z,2.30
2022-08-11T08:12:33.661Z,2.30
2022-08-11T08:15:26.448Z,2.30
2022-08-11T08:18:09.953Z,2.80
2022-08-11T08:20:50.170Z,2.90
2022-08-11T08:23:33.891Z,2.70
2022-08-11T08:26:30.614Z,2.80
2022-08-11T08:29:20.762Z,2.80
2022-08-11T08:31:49.677Z,2.50
2022-08-11T08:34:18.762Z,2.60
2022-08-11T08:36:50.375Z,2.90
2022-08-11T08:39:22.978Z,2.80
2022-08-11T08:41:56.207Z,2.90
2022-08-11T08:44:42.225Z,3.10
2022-08-11T08:47:41.067Z,3.20
2022-08-11T08:50:19.391Z,2.60
2022-08-11T08:52:55.998Z,3.00
2022-08-11T08:55:23.664Z,2.70
2022-08-11T08:57:54.432Z,2.70
2022-08-11T09:00:23.799Z,2.40
2022-08-11T09:02:52.497Z,2.70
2022-08-11T09:05:20.170Z,2.80
2022-08-11T09:07:51.305Z,3.00
2022-08-11T09:10:20.556Z,3.10
2022-08-11T09:12:49.149Z,2.90
2022-08-11T09:15:19.847Z,3.40
2022-08-11T09:17:52.539Z,3.30
2022-08-11T09:20:21.035Z,2.90
2022-08-11T09:24:06.505Z,2.80
2022-08-11T09:26:19.603Z,3.00
2022-08-11T09:28:50.251Z,2.90
2022-08-11T09:31:18.122Z,2.70
2022-08-11T09:33:52.517Z,3.30
2022-08-11T09:36:39.737Z,2.60
2022-08-11T09:39:27.885Z,2.90
2022-08-11T09:42:03.111Z,2.80
2022-08-11T09:44:49.858Z,3.00
2022-08-11T09:47:26.276Z,2.80
2022-08-11T09:50:02.570Z,3.30
2022-08-11T09:52:52.181Z,2.70
2022-08-11T09:55:27.919Z,3.20
2022-08-11T09:58:42.492Z,3.00
2022-08-11T10:01:05.383Z,3.10
2022-08-11T10:03:40.586Z,3.20
2022-08-11T10:06:33.239Z,3.10
2022-08-11T10:09:06.397Z,3.20
2022-08-11T10:11:37.903Z,3.10
2022-08-11T10:14:33.295Z,3.20
2022-08-11T10:17:10.432Z,3.30
2022-08-11T10:19:38.793Z,3.00
2022-08-11T10:22:27.533Z,3.20
2022-08-11T10:25:19.595Z,3.10
2022-08-11T10:28:28.712Z,3.20
2022-08-11T10:31:12.683Z,3.50
2022-08-11T10:34:03.565Z,3.30
2022-08-11T10:37:05.460Z,3.30
2022-08-11T10:39:34.783Z,3.20
2022-08-11T10:42:41.382Z,3.20
2022-08-11T10:45:30.818Z,3.40
2022-08-11T10:47:59.076Z,3.60
2022-08-11T10:50:47.304Z,3.30
2022-08-11T10:53:36.395Z,3.50
2022-08-11T10:56:24.507Z,3.90
2022-08-11T10:58:52.920Z,3.50
2022-08-11T11:01:38.099Z,3.40
2022-08-11T11:04:24.447Z,3.60
2022-08-11T11:07:24.228Z,3.50
2022-08-11T11:10:04.570Z,3.30
2022-08-11T11:13:04.570Z,4.00
2022-08-11T11:15:55.168Z,4.10
2022-08-11T11:18:25.572Z,3.60
2022-08-11T11:21:15.661Z,3.20
2022-08-11T11:23:54.270Z,4.30
2022-08-11T11:26:43.703Z,3.90
2022-08-11T11:29:47.377Z,3.90
2022-08-11T11:32:31.247Z,4.00
2022-08-11T11:35:08.938Z,4.30
2022-08-11T11:37:38.293Z,4.20
2022-08-11T11:40:21.460Z,3.70
2022-08-11T11:42:59.462Z,3.90
2022-08-11T11:45:26.887Z,4.20
2022-08-11T11:47:59.320Z,4.30
2022-08-11T11:50:37.862Z,4.10
2022-08-11T11:53:09.281Z,4.00
2022-08-11T11:55:37.413Z,3.90
2022-08-11T11:58:24.718Z,4.00
2022-08-11T12:01:12.642Z,4.60
2022-08-11T12:03:41.531Z,4.30
2022-08-11T12:06:14.234Z,4.00
2022-08-11T12:08:43.909Z,4.10
2022-08-11T12:11:31.848Z,4.00
2022-08-11T12:14:10.251Z,4.10
2022-08-11T12:16:41.947Z,4.10
2022-08-11T12:19:14.339Z,4.00
2022-08-11T12:22:02.243Z,4.40
2022-08-11T12:24:51.174Z,3.70
2022-08-11T12:27:24.926Z,4.60
2022-08-11T12:29:59.690Z,3.70
2022-08-11T12:32:31.925Z,4.30
2022-08-11T12:34:59.712Z,4.00
2022-08-11T12:37:43.761Z,4.10
2022-08-11T12:41:11.763Z,3.70
2022-08-11T12:43:56.913Z,3.90
2022-08-11T12:46:31.926Z,4.60
2022-08-11T12:49:30.830Z,4.00
2022-08-11T12:52:14.626Z,3.80
2022-08-11T12:54:57.579Z,4.10
2022-08-11T12:58:01.413Z,3.80
2022-08-11T13:00:50.058Z,3.80
2022-08-11T13:03:39.555Z,3.70
2022-08-11T13:06:08.483Z,3.70
2022-08-11T13:08:39.254Z,3.60
2022-08-11T13:11:56.299Z,4.80
2022-08-11T13:14:15.605Z,4.10
2022-08-11T13:17:03.829Z,4.20
2022-08-11T13:19:32.436Z,4.00
2022-08-11T13:22:00.821Z,4.30
2022-08-11T13:24:28.921Z,4.00
2022-08-11T13:26:58.013Z,4.20
2022-08-11T13:29:28.202Z,4.00
2022-08-11T13:31:59.799Z,4.50
2022-08-11T13:34:31.287Z,4.40
2022-08-11T13:37:01.729Z,4.50
2022-08-11T13:39:32.242Z,4.20
2022-08-11T13:42:03.661Z,3.60
2022-08-11T13:44:34.683Z,3.90
2022-08-11T13:47:06.602Z,4.00
2022-08-11T13:49:40.433Z,3.90
2022-08-11T13:52:14.808Z,4.30
2022-08-11T13:54:44.294Z,4.30
2022-08-11T13:58:08.893Z,5.30
2022-08-11T14:00:23.629Z,5.00
2022-08-11T14:02:58.205Z,4.70
2022-08-11T14:05:52.144Z,5.10
2022-08-11T14:08:37.277Z,5.30
2022-08-11T14:12:23.070Z,5.60
2022-08-11T14:14:22.997Z,6.20
2022-08-11T14:16:56.803Z,6.70
2022-08-11T14:19:26.815Z,8.60
2022-08-11T14:22:08.669Z,7.10
2022-08-11T14:24:40.635Z,8.60
2022-08-11T14:28:25.926Z,8.50
2022-08-11T14:29:59.968Z,8.70
2022-08-11T14:32:27.709Z,9.50
2022-08-11T14:34:55.776Z,9.10
2022-08-11T14:37:26.921Z,9.70
2022-08-11T14:40:02.833Z,8.90
2022-08-11T14:42:49.293Z,10.80
2022-08-11T14:45:58.066Z,12.70
2022-08-11T14:48:24.000Z,9.90
2022-08-11T14:50:51.426Z,13.40
2022-08-11T14:53:22.534Z,13.10
2022-08-11T14:56:09.564Z,15.30
2022-08-11T14:58:37.835Z,13.50
2022-08-11T15:01:25.910Z,13.90
2022-08-11T15:04:25.038Z,15.50
2022-08-11T15:06:40.878Z,17.90
2022-08-11T15:09:09.285Z,17.60
2022-08-11T15:11:55.717Z,18.10
2022-08-11T15:14:42.410Z,17.20
2022-08-11T15:17:13.006Z,18.10
2022-08-11T15:20:03.150Z,18.70
2022-08-11T15:22:49.264Z,20.20
2022-08-11T15:25:16.514Z,20.90
2022-08-11T15:28:09.025Z,21.30
2022-08-11T15:30:57.416Z,24.20
2022-08-11T15:33:45.852Z,25.50
2022-08-11T15:36:33.772Z,26.60
2022-08-11T15:39:27.882Z,26.70
2022-08-11T15:42:18.741Z,25.90
2022-08-11T15:45:14.321Z,35.10
2022-08-11T15:48:05.424Z,28.70
2022-08-11T15:50:41.024Z,33.30
2022-08-11T15:53:56.924Z,35.80
2022-08-11T15:56:32.796Z,33.10
2022-08-11T15:59:42.932Z,37.20
2022-08-11T16:02:33.807Z,32.50
2022-08-11T16:05:06.837Z,38.30
2022-08-11T16:07:38.429Z,38.40
2022-08-11T16:10:19.362Z,35.50
2022-08-11T16:13:05.974Z,34.40
2022-08-11T16:15:56.952Z,33.00
2022-08-11T16:18:40.767Z,33.70
2022-08-11T16:21:33.643Z,34.40
2022-08-11T16:24:06.967Z,37.80
2022-08-11T16:27:11.084Z,30.30
2022-08-11T16:29:26.816Z,33.80
2022-08-11T16:32:15.029Z,34.80
2022-08-11T16:35:04.385Z,35.70
2022-08-11T16:37:53.651Z,35.20
2022-08-11T16:40:22.802Z,36.00
2022-08-11T16:43:11.783Z,35.50
2022-08-11T16:46:00.225Z,37.00
2022-08-11T16:48:35.756Z,37.50
2022-08-11T16:51:11.958Z,40.70
2022-08-11T16:53:47.390Z,35.30
2022-08-11T16:56:36.473Z,37.40
2022-08-11T16:59:17.598Z,36.30
2022-08-11T17:01:59.205Z,35.20
2022-08-11T17:05:10.634Z,34.90
2022-08-11T17:08:02.223Z,32.90
2022-08-11T17:10:58.930Z,28.70
2022-08-11T17:13:36.834Z,32.90
2022-08-11T17:16:07.964Z,37.00
2022-08-11T17:19:01.402Z,32.00
2022-08-11T17:21:34.793Z,33.00
2022-08-11T17:24:09.241Z,30.60
2022-08-11T17:26:57.199Z,32.90
2022-08-11T17:29:53.759Z,29.80
2022-08-11T17:33:01.400Z,26.20
2022-08-11T17:35:41.099Z,29.90
2022-08-11T17:38:14.633Z,25.90
2022-08-11T17:41:26.726Z,24.80
2022-08-11T17:44:14.836Z,18.90
2022-08-11T17:47:05.894Z,16.00
2022-08-11T17:49:38.088Z,13.10
2022-08-11T17:52:26.531Z,10.60
2022-08-11T17:55:15.413Z,8.70
2022-08-11T17:58:02.340Z,7.60
2022-08-11T18:00:31.967Z,7.00
2022-08-11T18:03:20.313Z,7.30
2022-08-11T18:05:49.364Z,6.40
2022-08-11T18:08:37.876Z,6.40
2022-08-11T18:12:11.132Z,5.70
2022-08-11T18:14:34.852Z,5.10
2022-08-11T18:17:20.497Z,4.80
2022-08-11T18:20:05.864Z,4.80
2022-08-11T18:22:59.340Z,4.30
2022-08-11T18:25:51.416Z,5.00
2022-08-11T18:28:45.178Z,4.30
2022-08-11T18:31:35.225Z,4.40
2022-08-11T18:34:28.701Z,4.10
2022-08-11T18:37:29.066Z,3.80
2022-08-11T18:40:30.082Z,4.30
2022-08-11T18:43:25.009Z,4.70
2022-08-11T18:46:25.240Z,4.10
2022-08-11T18:49:26.641Z,4.60
2022-08-11T18:52:25.643Z,4.20
2022-08-11T18:55:17.353Z,4.30
2022-08-11T18:58:07.323Z,3.80
2022-08-11T19:00:57.428Z,3.90
2022-08-11T19:03:48.603Z,3.90
2022-08-11T19:06:41.561Z,3.80
2022-08-11T19:09:35.145Z,3.40
2022-08-11T19:12:23.226Z,3.60
2022-08-11T19:15:11.394Z,3.80
2022-08-11T19:18:01.758Z,3.20
2022-08-11T19:20:52.540Z,4.50
2022-08-11T19:23:49.991Z,4.00
2022-08-11T19:26:37.346Z,3.50
2022-08-11T19:30:07.642Z,3.50
2022-08-11T19:32:33.802Z,3.20
2022-08-11T19:35:22.235Z,3.60
2022-08-11T19:38:10.110Z,3.70
2022-08-11T19:40:59.121Z,3.90
2022-08-11T19:43:47.978Z,3.60
2022-08-11T19:46:38.246Z,3.10
2022-08-11T19:49:25.095Z,3.60
2022-08-11T19:52:12.355Z,3.50
2022-08-11T19:55:00.389Z,2.90
2022-08-11T19:57:48.209Z,3.70
2022-08-11T20:00:38.714Z,3.20
2022-08-11T20:03:29.290Z,3.20
2022-08-11T20:06:20.414Z,3.20
2022-08-11T20:09:08.888Z,3.00
2022-08-11T20:12:06.830Z,3.10
2022-08-11T20:14:57.917Z,3.90
2022-08-11T20:17:50.425Z,4.30
2022-08-11T20:20:37.557Z,3.20
2022-08-11T20:23:28.315Z,3.20
2022-08-11T20:26:30.718Z,3.20
2022-08-11T20:29:19.631Z,3.10
2022-08-11T20:32:09.886Z,3.40
2022-08-11T20:34:58.221Z,3.40
2022-08-11T20:37:50.773Z,3.00
2022-08-11T20:40:42.907Z,3.20
2022-08-11T20:44:07.442Z,3.00
2022-08-11T20:46:43.892Z,3.00
2022-08-11T20:49:40.617Z,3.40
2022-08-11T20:52:37.558Z,3.20
2022-08-11T20:59:01.019Z,3.10
2022-08-11T21:01:42.377Z,3.60
2022-08-11T21:04:29.386Z,3.00
2022-08-11T21:07:22.825Z,3.50
2022-08-11T21:10:23.346Z,3.10
2022-08-11T21:13:24.119Z,3.40
2022-08-11T21:16:22.757Z,3.10
2022-08-11T21:19:59.718Z,3.20
2022-08-11T21:22:59.690Z,3.80
2022-08-11T21:26:05.003Z,3.90
2022-08-11T21:28:53.395Z,3.10
2022-08-11T21:31:40.317Z,3.20
2022-08-11T21:34:30.337Z,3.50
2022-08-11T21:37:20.110Z,2.90
2022-08-11T21:40:14.921Z,3.70
2022-08-11T21:43:05.803Z,3.40
2022-08-11T21:45:55.724Z,2.90
2022-08-11T21:48:45.719Z,3.20
2022-08-11T21:51:31.745Z,3.10
2022-08-11T21:54:20.100Z,3.30
2022-08-11T21:57:06.694Z,3.40
2022-08-11T22:00:11.808Z,3.20
2022-08-11T22:02:58.713Z,3.40
2022-08-11T22:05:49.930Z,3.30
2022-08-11T22:08:36.364Z,3.10
2022-08-11T22:11:31.736Z,3.30
2022-08-11T22:14:22.322Z,3.50
2022-08-11T22:17:08.948Z,3.40
2022-08-11T22:20:00.915Z,3.60
2022-08-11T22:22:53.044Z,3.90
2022-08-11T22:25:53.658Z,4.00
2022-08-11T22:28:41.065Z,3.60
2022-08-11T22:31:29.123Z,3.30
2022-08-11T22:34:15.574Z,3.60
2022-08-11T22:37:05.552Z,3.40
2022-08-11T22:39:59.820Z,3.80
2022-08-11T22:42:48.454Z,4.20
2022-08-11T22:45:34.645Z,3.30
2022-08-11T22:48:24.551Z,3.40
2022-08-11T22:51:11.917Z,4.00
2022-08-11T22:53:59.678Z,3.20
2022-08-11T22:56:49.146Z,3.20
2022-08-11T22:59:37.518Z,3.30
2022-08-11T23:02:25.709Z,3.10
2022-08-11T23:05:13.184Z,2.70
2022-08-11T23:08:00.718Z,3.00
2022-08-11T23:10:47.047Z,3.00
2022-08-11T23:13:34.151Z,2.90
2022-08-11T23:16:20.732Z,2.90
2022-08-11T23:19:08.959Z,3.10
2022-08-11T23:21:56.250Z,2.80
2022-08-11T23:24:44.751Z,2.60
2022-08-11T23:27:33.436Z,3.10
2022-08-11T23:30:20.775Z,3.10
2022-08-11T23:33:12.547Z,3.20
2022-08-11T23:36:05.388Z,3.00
2022-08-11T23:38:51.613Z,3.10
2022-08-11T23:41:37.008Z,3.20
2022-08-11T23:44:25.363Z,3.20
2022-08-11T23:47:16.176Z,3.00
2022-08-11T23:50:05.128Z,3.10
2022-08-11T23:52:53.991Z,3.00
2022-08-11T23:55:41.040Z,3.00
2022-08-11T23:58:28.673Z,3.00
